sensor_id;sensor_type;location;lat;lon;timestamp;temperature;humidity
41944;DHT22;27636;52.610;13.244;2023-06-05T00:01:39;10.30;99.90
41944;DHT22;27636;52.610;13.244;2023-06-05T00:06:43;10.20;99.90
41944;DHT22;27636;52.610;13.244;2023-06-05T00:11:47;10.20;99.90
41944;DHT22;27636;52.610;13.244;2023-06-05T00:16:52;10.10;99.90
41944;DHT22;27636;52.610;13.244;2023-06-05T00:21:56;9.90;99.90
41944;DHT22;27636;52.610;13.244;2023-06-05T00:27:03;10.10;99.90
41944;DHT22;27636;52.610;13.244;2023-06-05T00:32:08;9.90;99.90
41944;DHT22;27636;52.610;13.244;2023-06-05T00:37:12;9.80;99.90
41944;DHT22;27636;52.610;13.244;2023-06-05T00:42:17;9.80;99.90
41944;DHT22;27636;52.610;13.244;2023-06-05T00:47:23;9.70;99.90
41944;DHT22;27636;52.610;13.244;2023-06-05T00:52:27;9.60;99.90
41944;DHT22;27636;52.610;13.244;2023-06-05T00:57:31;9.60;99.90
41944;DHT22;27636;52.610;13.244;2023-06-05T01:02:39;9.50;99.90
41944;DHT22;27636;52.610;13.244;2023-06-05T01:07:43;9.40;99.90
41944;DHT22;27636;52.610;13.244;2023-06-05T01:12:53;9.40;99.90
41944;DHT22;27636;52.610;13.244;2023-06-05T01:18:03;9.20;99.90
41944;DHT22;27636;52.610;13.244;2023-06-05T01:23:09;9.20;99.90
41944;DHT22;27636;52.610;13.244;2023-06-05T01:28:15;9.10;99.90
41944;DHT22;27636;52.610;13.244;2023-06-05T01:33:26;9.20;99.90
41944;DHT22;27636;52.610;13.244;2023-06-05T01:38:34;9.00;99.90
41944;DHT22;27636;52.610;13.244;2023-06-05T01:43:38;9.00;99.90
41944;DHT22;27636;52.610;13.244;2023-06-05T01:48:43;9.00;99.90
41944;DHT22;27636;52.610;13.244;2023-06-05T01:53:49;9.00;99.90
41944;DHT22;27636;52.610;13.244;2023-06-05T01:58:53;8.90;99.90
41944;DHT22;27636;52.610;13.244;2023-06-05T02:03:56;8.80;99.90
41944;DHT22;27636;52.610;13.244;2023-06-05T02:09:02;8.70;99.90
41944;DHT22;27636;52.610;13.244;2023-06-05T02:14:06;8.70;99.90
41944;DHT22;27636;52.610;13.244;2023-06-05T02:19:10;8.60;99.90
41944;DHT22;27636;52.610;13.244;2023-06-05T02:24:15;8.70;99.90
41944;DHT22;27636;52.610;13.244;2023-06-05T02:29:20;8.60;99.90
41944;DHT22;27636;52.610;13.244;2023-06-05T02:34:23;8.50;99.90
41944;DHT22;27636;52.610;13.244;2023-06-05T02:39:29;8.50;99.90
41944;DHT22;27636;52.610;13.244;2023-06-05T02:44:35;8.50;99.90
41944;DHT22;27636;52.610;13.244;2023-06-05T02:49:38;8.50;99.90
41944;DHT22;27636;52.610;13.244;2023-06-05T02:54:43;8.40;99.90
41944;DHT22;27636;52.610;13.244;2023-06-05T02:59:47;8.40;99.90
41944;DHT22;27636;52.610;13.244;2023-06-05T03:04:54;8.40;99.90
41944;DHT22;27636;52.610;13.244;2023-06-05T03:10:04;8.40;99.90
41944;DHT22;27636;52.610;13.244;2023-06-05T03:15:11;8.50;99.90
41944;DHT22;27636;52.610;13.244;2023-06-05T03:20:17;8.60;99.90
41944;DHT22;27636;52.610;13.244;2023-06-05T03:25:24;8.70;99.90
41944;DHT22;27636;52.610;13.244;2023-06-05T03:30:31;8.70;99.90
41944;DHT22;27636;52.610;13.244;2023-06-05T03:35:36;8.70;99.90
41944;DHT22;27636;52.610;13.244;2023-06-05T03:40:43;8.80;99.90
41944;DHT22;27636;52.610;13.244;2023-06-05T03:45:49;9.00;99.90
41944;DHT22;27636;52.610;13.244;2023-06-05T03:50:54;9.00;99.90
41944;DHT22;27636;52.610;13.244;2023-06-05T03:56:01;9.20;99.90
41944;DHT22;27636;52.610;13.244;2023-06-05T04:01:12;9.50;99.90
41944;DHT22;27636;52.610;13.244;2023-06-05T04:06:16;9.60;99.90
41944;DHT22;27636;52.610;13.244;2023-06-05T04:11:21;9.80;99.90
41944;DHT22;27636;52.610;13.244;2023-06-05T04:16:25;10.00;99.90
41944;DHT22;27636;52.610;13.244;2023-06-05T04:21:30;10.20;99.90
41944;DHT22;27636;52.610;13.244;2023-06-05T04:26:35;10.40;99.90
41944;DHT22;27636;52.610;13.244;2023-06-05T04:31:41;10.60;99.90
41944;DHT22;27636;52.610;13.244;2023-06-05T04:36:45;10.90;99.90
41944;DHT22;27636;52.610;13.244;2023-06-05T04:41:56;11.10;99.90
41944;DHT22;27636;52.610;13.244;2023-06-05T04:47:06;11.40;99.90
41944;DHT22;27636;52.610;13.244;2023-06-05T04:52:12;11.90;99.90
41944;DHT22;27636;52.610;13.244;2023-06-05T04:57:20;13.30;99.90
41944;DHT22;27636;52.610;13.244;2023-06-05T05:02:24;15.60;98.80
41944;DHT22;27636;52.610;13.244;2023-06-05T05:07:28;17.40;90.60
41944;DHT22;27636;52.610;13.244;2023-06-05T05:12:34;19.20;75.10
41944;DHT22;27636;52.610;13.244;2023-06-05T05:17:37;20.70;71.40
41944;DHT22;27636;52.610;13.244;2023-06-05T05:22:41;21.70;62.50
41944;DHT22;27636;52.610;13.244;2023-06-05T05:27:46;22.40;59.80
41944;DHT22;27636;52.610;13.244;2023-06-05T05:32:51;22.40;57.90
41944;DHT22;27636;52.610;13.244;2023-06-05T05:37:55;23.00;57.00
41944;DHT22;27636;52.610;13.244;2023-06-05T05:43:00;23.70;55.20
41944;DHT22;27636;52.610;13.244;2023-06-05T05:48:04;22.90;55.50
41944;DHT22;27636;52.610;13.244;2023-06-05T05:53:07;24.00;53.30
41944;DHT22;27636;52.610;13.244;2023-06-05T05:58:13;23.90;53.90
41944;DHT22;27636;52.610;13.244;2023-06-05T06:03:18;24.90;50.70
41944;DHT22;27636;52.610;13.244;2023-06-05T06:08:23;25.60;51.10
41944;DHT22;27636;52.610;13.244;2023-06-05T06:13:29;25.30;50.30
41944;DHT22;27636;52.610;13.244;2023-06-05T06:18:33;25.40;49.30
41944;DHT22;27636;52.610;13.244;2023-06-05T06:23:36;25.40;49.80
41944;DHT22;27636;52.610;13.244;2023-06-05T06:28:42;25.30;49.70
41944;DHT22;27636;52.610;13.244;2023-06-05T06:33:46;25.30;49.90
41944;DHT22;27636;52.610;13.244;2023-06-05T06:38:49;24.50;51.90
41944;DHT22;27636;52.610;13.244;2023-06-05T06:43:54;25.60;48.50
41944;DHT22;27636;52.610;13.244;2023-06-05T06:48:58;26.70;47.60
41944;DHT22;27636;52.610;13.244;2023-06-05T06:54:02;27.30;47.50
41944;DHT22;27636;52.610;13.244;2023-06-05T06:59:11;27.40;47.70
41944;DHT22;27636;52.610;13.244;2023-06-05T07:04:18;27.90;47.80
41944;DHT22;27636;52.610;13.244;2023-06-05T07:09:24;27.60;44.10
41944;DHT22;27636;52.610;13.244;2023-06-05T07:14:29;28.80;43.40
41944;DHT22;27636;52.610;13.244;2023-06-05T07:19:34;28.90;42.80
41944;DHT22;27636;52.610;13.244;2023-06-05T07:24:40;29.00;42.70
41944;DHT22;27636;52.610;13.244;2023-06-05T07:29:45;28.50;45.90
41944;DHT22;27636;52.610;13.244;2023-06-05T07:34:52;28.50;43.30
41944;DHT22;27636;52.610;13.244;2023-06-05T07:39:56;28.90;44.30
41944;DHT22;27636;52.610;13.244;2023-06-05T07:45:01;28.90;43.60
41944;DHT22;27636;52.610;13.244;2023-06-05T07:50:07;28.40;42.00
41944;DHT22;27636;52.610;13.244;2023-06-05T07:55:10;29.10;42.70
41944;DHT22;27636;52.610;13.244;2023-06-05T08:00:16;28.50;41.00
41944;DHT22;27636;52.610;13.244;2023-06-05T08:05:24;28.20;42.20
41944;DHT22;27636;52.610;13.244;2023-06-05T08:10:28;29.70;41.20
41944;DHT22;27636;52.610;13.244;2023-06-05T08:15:36;29.10;41.90
41944;DHT22;27636;52.610;13.244;2023-06-05T08:20:39;28.50;41.60
41944;DHT22;27636;52.610;13.244;2023-06-05T08:25:43;29.80;41.50
41944;DHT22;27636;52.610;13.244;2023-06-05T08:30:48;30.80;37.60
41944;DHT22;27636;52.610;13.244;2023-06-05T08:35:53;30.10;36.10
41944;DHT22;27636;52.610;13.244;2023-06-05T08:41:00;30.20;39.70
41944;DHT22;27636;52.610;13.244;2023-06-05T08:46:06;29.60;36.20
41944;DHT22;27636;52.610;13.244;2023-06-05T08:51:12;29.20;38.40
41944;DHT22;27636;52.610;13.244;2023-06-05T08:56:16;29.00;37.30
41944;DHT22;27636;52.610;13.244;2023-06-05T09:01:21;28.60;36.60
41944;DHT22;27636;52.610;13.244;2023-06-05T09:06:24;28.60;36.60
41944;DHT22;27636;52.610;13.244;2023-06-05T09:11:30;28.90;37.00
41944;DHT22;27636;52.610;13.244;2023-06-05T09:16:37;28.90;37.30
41944;DHT22;27636;52.610;13.244;2023-06-05T09:21:51;30.20;33.60
41944;DHT22;27636;52.610;13.244;2023-06-05T09:26:57;29.70;35.10
41944;DHT22;27636;52.610;13.244;2023-06-05T09:32:04;31.00;38.60
41944;DHT22;27636;52.610;13.244;2023-06-05T09:37:09;30.50;35.50
41944;DHT22;27636;52.610;13.244;2023-06-05T09:42:13;29.70;37.20
41944;DHT22;27636;52.610;13.244;2023-06-05T09:47:21;29.50;35.10
41944;DHT22;27636;52.610;13.244;2023-06-05T09:52:26;28.80;37.50
41944;DHT22;27636;52.610;13.244;2023-06-05T09:57:30;29.50;36.00
41944;DHT22;27636;52.610;13.244;2023-06-05T10:02:36;29.90;33.90
41944;DHT22;27636;52.610;13.244;2023-06-05T10:07:39;30.50;39.90
41944;DHT22;27636;52.610;13.244;2023-06-05T10:12:45;31.00;34.30
41944;DHT22;27636;52.610;13.244;2023-06-05T10:17:50;29.40;35.40
41944;DHT22;27636;52.610;13.244;2023-06-05T10:22:54;30.60;34.60
41944;DHT22;27636;52.610;13.244;2023-06-05T10:28:09;29.20;35.80
41944;DHT22;27636;52.610;13.244;2023-06-05T10:33:36;28.90;34.20
41944;DHT22;27636;52.610;13.244;2023-06-05T10:38:42;29.10;34.50
41944;DHT22;27636;52.610;13.244;2023-06-05T10:43:48;30.20;37.80
41944;DHT22;27636;52.610;13.244;2023-06-05T10:49:10;30.50;32.40
41944;DHT22;27636;52.610;13.244;2023-06-05T11:00:05;29.90;35.20
41944;DHT22;27636;52.610;13.244;2023-06-05T11:05:11;29.10;35.20
41944;DHT22;27636;52.610;13.244;2023-06-05T11:10:17;28.40;36.70
41944;DHT22;27636;52.610;13.244;2023-06-05T11:15:39;28.80;33.40
41944;DHT22;27636;52.610;13.244;2023-06-05T11:20:51;29.50;34.60
41944;DHT22;27636;52.610;13.244;2023-06-05T11:25:56;30.00;34.20
41944;DHT22;27636;52.610;13.244;2023-06-05T11:31:01;29.40;35.30
41944;DHT22;27636;52.610;13.244;2023-06-05T11:36:07;29.50;34.70
41944;DHT22;27636;52.610;13.244;2023-06-05T11:41:11;29.80;33.30
41944;DHT22;27636;52.610;13.244;2023-06-05T11:46:15;29.40;39.10
41944;DHT22;27636;52.610;13.244;2023-06-05T11:51:20;30.90;33.10
41944;DHT22;27636;52.610;13.244;2023-06-05T11:56:25;30.10;34.90
41944;DHT22;27636;52.610;13.244;2023-06-05T12:01:31;30.20;33.80
41944;DHT22;27636;52.610;13.244;2023-06-05T12:06:42;30.30;33.10
41944;DHT22;27636;52.610;13.244;2023-06-05T12:11:46;31.20;36.90
41944;DHT22;27636;52.610;13.244;2023-06-05T12:16:50;30.30;33.90
41944;DHT22;27636;52.610;13.244;2023-06-05T12:22:04;31.10;32.90
41944;DHT22;27636;52.610;13.244;2023-06-05T12:27:12;30.80;33.30
41944;DHT22;27636;52.610;13.244;2023-06-05T12:32:21;30.80;32.40
41944;DHT22;27636;52.610;13.244;2023-06-05T12:37:28;29.60;37.10
41944;DHT22;27636;52.610;13.244;2023-06-05T12:42:37;29.50;33.60
41944;DHT22;27636;52.610;13.244;2023-06-05T12:47:41;30.00;34.20
41944;DHT22;27636;52.610;13.244;2023-06-05T12:52:47;30.00;34.00
41944;DHT22;27636;52.610;13.244;2023-06-05T12:57:51;30.00;32.80
41944;DHT22;27636;52.610;13.244;2023-06-05T13:02:55;29.80;35.00
41944;DHT22;27636;52.610;13.244;2023-06-05T13:08:01;29.80;32.40
41944;DHT22;27636;52.610;13.244;2023-06-05T13:13:05;29.70;35.50
41944;DHT22;27636;52.610;13.244;2023-06-05T13:18:09;29.20;33.60
41944;DHT22;27636;52.610;13.244;2023-06-05T13:23:14;28.40;35.50
41944;DHT22;27636;52.610;13.244;2023-06-05T13:28:18;28.20;34.20
41944;DHT22;27636;52.610;13.244;2023-06-05T13:33:22;28.70;33.70
41944;DHT22;27636;52.610;13.244;2023-06-05T13:38:26;27.90;34.80
41944;DHT22;27636;52.610;13.244;2023-06-05T13:43:30;27.50;34.80
41944;DHT22;27636;52.610;13.244;2023-06-05T13:48:35;27.60;35.50
41944;DHT22;27636;52.610;13.244;2023-06-05T13:53:41;28.10;37.00
41944;DHT22;27636;52.610;13.244;2023-06-05T13:58:45;28.00;34.50
41944;DHT22;27636;52.610;13.244;2023-06-05T14:03:48;29.10;33.70
41944;DHT22;27636;52.610;13.244;2023-06-05T14:08:54;28.20;34.60
41944;DHT22;27636;52.610;13.244;2023-06-05T14:13:57;28.70;33.20
41944;DHT22;27636;52.610;13.244;2023-06-05T14:19:02;27.50;32.90
41944;DHT22;27636;52.610;13.244;2023-06-05T14:24:08;28.10;34.70
41944;DHT22;27636;52.610;13.244;2023-06-05T14:29:12;28.50;35.40
41944;DHT22;27636;52.610;13.244;2023-06-05T14:34:15;28.10;34.90
41944;DHT22;27636;52.610;13.244;2023-06-05T14:39:20;28.90;34.00
41944;DHT22;27636;52.610;13.244;2023-06-05T14:44:24;28.40;35.00
41944;DHT22;27636;52.610;13.244;2023-06-05T14:49:28;27.70;34.30
41944;DHT22;27636;52.610;13.244;2023-06-05T14:54:33;27.70;36.10
41944;DHT22;27636;52.610;13.244;2023-06-05T14:59:36;28.00;36.10
41944;DHT22;27636;52.610;13.244;2023-06-05T15:04:40;27.60;35.40
41944;DHT22;27636;52.610;13.244;2023-06-05T15:09:47;27.50;35.40
41944;DHT22;27636;52.610;13.244;2023-06-05T15:14:52;28.40;35.20
41944;DHT22;27636;52.610;13.244;2023-06-05T15:20:04;27.90;35.70
41944;DHT22;27636;52.610;13.244;2023-06-05T15:25:10;27.50;36.70
41944;DHT22;27636;52.610;13.244;2023-06-05T15:30:14;27.60;37.50
41944;DHT22;27636;52.610;13.244;2023-06-05T15:35:18;27.60;35.90
41944;DHT22;27636;52.610;13.244;2023-06-05T15:40:24;28.20;36.30
41944;DHT22;27636;52.610;13.244;2023-06-05T15:45:27;27.80;36.70
41944;DHT22;27636;52.610;13.244;2023-06-05T15:50:31;27.60;36.40
41944;DHT22;27636;52.610;13.244;2023-06-05T15:55:36;27.60;36.00
41944;DHT22;27636;52.610;13.244;2023-06-05T16:00:42;26.90;38.40
41944;DHT22;27636;52.610;13.244;2023-06-05T16:05:47;26.90;39.80
41944;DHT22;27636;52.610;13.244;2023-06-05T16:10:54;26.80;37.10
41944;DHT22;27636;52.610;13.244;2023-06-05T16:16:02;26.00;39.70
41944;DHT22;27636;52.610;13.244;2023-06-05T16:21:06;26.00;37.70
41944;DHT22;27636;52.610;13.244;2023-06-05T16:26:11;25.50;40.30
41944;DHT22;27636;52.610;13.244;2023-06-05T16:31:16;25.20;38.10
41944;DHT22;27636;52.610;13.244;2023-06-05T16:36:20;24.70;40.30
41944;DHT22;27636;52.610;13.244;2023-06-05T16:41:25;24.50;40.80
41944;DHT22;27636;52.610;13.244;2023-06-05T16:46:28;24.40;42.20
41944;DHT22;27636;52.610;13.244;2023-06-05T16:51:33;24.20;42.60
41944;DHT22;27636;52.610;13.244;2023-06-05T16:56:37;24.10;42.10
41944;DHT22;27636;52.610;13.244;2023-06-05T17:01:41;24.40;41.80
41944;DHT22;27636;52.610;13.244;2023-06-05T17:06:46;24.60;41.00
41944;DHT22;27636;52.610;13.244;2023-06-05T17:11:51;24.80;41.30
41944;DHT22;27636;52.610;13.244;2023-06-05T17:16:55;24.80;41.80
41944;DHT22;27636;52.610;13.244;2023-06-05T17:21:58;24.80;42.10
41944;DHT22;27636;52.610;13.244;2023-06-05T17:27:04;24.60;41.50
41944;DHT22;27636;52.610;13.244;2023-06-05T17:32:09;24.70;42.50
41944;DHT22;27636;52.610;13.244;2023-06-05T17:37:14;24.50;42.40
41944;DHT22;27636;52.610;13.244;2023-06-05T17:42:19;24.50;42.30
41944;DHT22;27636;52.610;13.244;2023-06-05T17:47:23;24.40;42.20
41944;DHT22;27636;52.610;13.244;2023-06-05T17:52:26;24.30;42.70
41944;DHT22;27636;52.610;13.244;2023-06-05T17:57:31;24.00;44.20
41944;DHT22;27636;52.610;13.244;2023-06-05T18:02:35;23.90;44.40
41944;DHT22;27636;52.610;13.244;2023-06-05T18:07:39;23.70;44.50
41944;DHT22;27636;52.610;13.244;2023-06-05T18:12:43;23.50;46.50
41944;DHT22;27636;52.610;13.244;2023-06-05T18:17:47;23.30;46.80
41944;DHT22;27636;52.610;13.244;2023-06-05T18:22:50;23.20;46.70
41944;DHT22;27636;52.610;13.244;2023-06-05T18:27:55;22.90;47.90
41944;DHT22;27636;52.610;13.244;2023-06-05T18:33:00;22.60;50.20
41944;DHT22;27636;52.610;13.244;2023-06-05T18:38:03;22.30;52.60
41944;DHT22;27636;52.610;13.244;2023-06-05T18:43:08;21.90;54.50
41944;DHT22;27636;52.610;13.244;2023-06-05T18:48:11;21.50;60.70
41944;DHT22;27636;52.610;13.244;2023-06-05T18:53:15;21.20;56.70
41944;DHT22;27636;52.610;13.244;2023-06-05T18:58:20;21.10;56.50
41944;DHT22;27636;52.610;13.244;2023-06-05T19:03:24;20.90;57.60
41944;DHT22;27636;52.610;13.244;2023-06-05T19:08:27;20.70;59.70
41944;DHT22;27636;52.610;13.244;2023-06-05T19:13:32;20.50;59.00
41944;DHT22;27636;52.610;13.244;2023-06-05T19:18:36;20.40;59.40
41944;DHT22;27636;52.610;13.244;2023-06-05T19:23:41;20.20;59.10
41944;DHT22;27636;52.610;13.244;2023-06-05T19:28:46;20.10;59.60
41944;DHT22;27636;52.610;13.244;2023-06-05T19:33:49;20.10;59.10
41944;DHT22;27636;52.610;13.244;2023-06-05T19:38:53;19.90;61.30
41944;DHT22;27636;52.610;13.244;2023-06-05T19:43:58;19.50;62.00
41944;DHT22;27636;52.610;13.244;2023-06-05T19:49:01;19.40;62.20
41944;DHT22;27636;52.610;13.244;2023-06-05T19:54:05;19.10;65.90
41944;DHT22;27636;52.610;13.244;2023-06-05T19:59:10;18.80;67.80
41944;DHT22;27636;52.610;13.244;2023-06-05T20:04:13;18.40;68.00
41944;DHT22;27636;52.610;13.244;2023-06-05T20:09:17;18.30;68.80
41944;DHT22;27636;52.610;13.244;2023-06-05T20:14:21;17.90;70.10
41944;DHT22;27636;52.610;13.244;2023-06-05T20:19:25;17.80;72.00
41944;DHT22;27636;52.610;13.244;2023-06-05T20:24:29;17.50;72.10
41944;DHT22;27636;52.610;13.244;2023-06-05T20:29:34;17.70;70.20
41944;DHT22;27636;52.610;13.244;2023-06-05T20:34:38;17.50;71.60
41944;DHT22;27636;52.610;13.244;2023-06-05T20:39:42;17.30;74.00
41944;DHT22;27636;52.610;13.244;2023-06-05T20:44:51;17.50;71.60
41944;DHT22;27636;52.610;13.244;2023-06-05T20:49:59;17.40;71.50
41944;DHT22;27636;52.610;13.244;2023-06-05T20:55:05;17.70;68.70
41944;DHT22;27636;52.610;13.244;2023-06-05T21:00:12;17.90;68.60
41944;DHT22;27636;52.610;13.244;2023-06-05T21:05:16;17.90;68.60
41944;DHT22;27636;52.610;13.244;2023-06-05T21:10:20;18.10;67.10
41944;DHT22;27636;52.610;13.244;2023-06-05T21:15:25;18.40;67.20
41944;DHT22;27636;52.610;13.244;2023-06-05T21:20:29;18.40;67.30
41944;DHT22;27636;52.610;13.244;2023-06-05T21:25:32;18.40;68.20
41944;DHT22;27636;52.610;13.244;2023-06-05T21:30:37;18.30;69.50
41944;DHT22;27636;52.610;13.244;2023-06-05T21:35:41;18.10;70.00
41944;DHT22;27636;52.610;13.244;2023-06-05T21:40:45;18.30;70.30
41944;DHT22;27636;52.610;13.244;2023-06-05T21:45:50;18.00;70.70
41944;DHT22;27636;52.610;13.244;2023-06-05T21:50:54;18.00;71.10
41944;DHT22;27636;52.610;13.244;2023-06-05T21:55:58;17.90;72.60
41944;DHT22;27636;52.610;13.244;2023-06-05T22:01:03;17.70;73.00
41944;DHT22;27636;52.610;13.244;2023-06-05T22:06:07;17.60;73.90
41944;DHT22;27636;52.610;13.244;2023-06-05T22:11:12;17.70;74.10
41944;DHT22;27636;52.610;13.244;2023-06-05T22:16:17;17.50;75.40
41944;DHT22;27636;52.610;13.244;2023-06-05T22:21:22;17.40;75.50
41944;DHT22;27636;52.610;13.244;2023-06-05T22:26:27;17.20;76.50
41944;DHT22;27636;52.610;13.244;2023-06-05T22:31:32;17.40;75.90
41944;DHT22;27636;52.610;13.244;2023-06-05T22:36:36;17.40;76.60
41944;DHT22;27636;52.610;13.244;2023-06-05T22:41:39;17.30;76.90
41944;DHT22;27636;52.610;13.244;2023-06-05T22:46:45;17.10;77.50
41944;DHT22;27636;52.610;13.244;2023-06-05T22:51:48;17.10;78.60
41944;DHT22;27636;52.610;13.244;2023-06-05T22:56:52;16.80;79.80
41944;DHT22;27636;52.610;13.244;2023-06-05T23:01:58;16.80;80.50
41944;DHT22;27636;52.610;13.244;2023-06-05T23:07:02;16.60;81.20
41944;DHT22;27636;52.610;13.244;2023-06-05T23:12:06;16.60;83.20
41944;DHT22;27636;52.610;13.244;2023-06-05T23:17:12;16.60;81.90
41944;DHT22;27636;52.610;13.244;2023-06-05T23:22:15;16.50;81.40
41944;DHT22;27636;52.610;13.244;2023-06-05T23:27:19;16.40;81.80
41944;DHT22;27636;52.610;13.244;2023-06-05T23:32:25;16.40;82.20
41944;DHT22;27636;52.610;13.244;2023-06-05T23:37:28;16.20;83.40
41944;DHT22;27636;52.610;13.244;2023-06-05T23:42:32;16.00;84.50
41944;DHT22;27636;52.610;13.244;2023-06-05T23:47:37;15.90;84.60
41944;DHT22;27636;52.610;13.244;2023-06-05T23:52:45;15.80;84.60
41944;DHT22;27636;52.610;13.244;2023-06-05T23:57:49;15.40;88.30
